sensor_id;sensor_type;location;lat;lon;timestamp;P1;P2;P0
82622;PMS5003;72291;55.002;-1.592;2024-01-27T00:00:37;2;0;
82622;PMS5003;72291;55.002;-1.592;2024-01-27T00:03:02;3;1;
82622;PMS5003;72291;55.002;-1.592;2024-01-27T00:05:27;3;1;
82622;PMS5003;72291;55.002;-1.592;2024-01-27T00:07:53;2;0;
82622;PMS5003;72291;55.002;-1.592;2024-01-27T00:10:18;1;1;
82622;PMS5003;72291;55.002;-1.592;2024-01-27T00:12:44;0;0;
82622;PMS5003;72291;55.002;-1.592;2024-01-27T00:15:08;1;0;
82622;PMS5003;72291;55.002;-1.592;2024-01-27T00:17:33;0;0;
82622;PMS5003;72291;55.002;-1.592;2024-01-27T00:19:59;0;0;
82622;PMS5003;72291;55.002;-1.592;2024-01-27T00:22:24;4;1;
82622;PMS5003;72291;55.002;-1.592;2024-01-27T00:24:49;3;3;
82622;PMS5003;72291;55.002;-1.592;2024-01-27T00:27:14;3;2;
82622;PMS5003;72291;55.002;-1.592;2024-01-27T00:29:39;2;0;
82622;PMS5003;72291;55.002;-1.592;2024-01-27T00:32:05;2;1;
82622;PMS5003;72291;55.002;-1.592;2024-01-27T00:34:30;0;0;
82622;PMS5003;72291;55.002;-1.592;2024-01-27T00:36:57;1;0;
82622;PMS5003;72291;55.002;-1.592;2024-01-27T00:39:21;3;2;
82622;PMS5003;72291;55.002;-1.592;2024-01-27T00:41:47;2;1;
82622;PMS5003;72291;55.002;-1.592;2024-01-27T00:44:12;2;2;
82622;PMS5003;72291;55.002;-1.592;2024-01-27T00:46:38;0;0;
82622;PMS5003;72291;55.002;-1.592;2024-01-27T00:49:04;1;1;
82622;PMS5003;72291;55.002;-1.592;2024-01-27T00:51:28;0;0;
82622;PMS5003;72291;55.002;-1.592;2024-01-27T00:53:53;0;0;
82622;PMS5003;72291;55.002;-1.592;2024-01-27T00:56:18;0;0;
82622;PMS5003;72291;55.002;-1.592;2024-01-27T00:58:43;1;1;
82622;PMS5003;72291;55.002;-1.592;2024-01-27T01:01:10;1;0;
82622;PMS5003;72291;55.002;-1.592;2024-01-27T01:03:34;0;0;
82622;PMS5003;72291;55.002;-1.592;2024-01-27T01:05:59;0;0;
82622;PMS5003;72291;55.002;-1.592;2024-01-27T01:08:24;1;0;
82622;PMS5003;72291;55.002;-1.592;2024-01-27T01:10:54;0;0;
82622;PMS5003;72291;55.002;-1.592;2024-01-27T01:13:15;1;0;
82622;PMS5003;72291;55.002;-1.592;2024-01-27T01:49:33;2;1;
82622;PMS5003;72291;55.002;-1.592;2024-01-27T01:51:58;1;1;
82622;PMS5003;72291;55.002;-1.592;2024-01-27T01:54:23;1;1;
82622;PMS5003;72291;55.002;-1.592;2024-01-27T01:56:48;2;0;
82622;PMS5003;72291;55.002;-1.592;2024-01-27T01:59:13;2;1;
82622;PMS5003;72291;55.002;-1.592;2024-01-27T02:01:39;2;2;
82622;PMS5003;72291;55.002;-1.592;2024-01-27T02:04:04;0;0;
82622;PMS5003;72291;55.002;-1.592;2024-01-27T02:06:29;2;0;
82622;PMS5003;72291;55.002;-1.592;2024-01-27T02:08:54;1;1;
82622;PMS5003;72291;55.002;-1.592;2024-01-27T02:11:19;1;1;
82622;PMS5003;72291;55.002;-1.592;2024-01-27T02:13:46;2;1;
82622;PMS5003;72291;55.002;-1.592;2024-01-27T02:16:09;0;0;
82622;PMS5003;72291;55.002;-1.592;2024-01-27T02:18:34;3;0;
82622;PMS5003;72291;55.002;-1.592;2024-01-27T02:21:00;0;0;
82622;PMS5003;72291;55.002;-1.592;2024-01-27T02:23:25;2;1;
82622;PMS5003;72291;55.002;-1.592;2024-01-27T02:25:50;2;1;
82622;PMS5003;72291;55.002;-1.592;2024-01-27T02:28:15;0;0;
82622;PMS5003;72291;55.002;-1.592;2024-01-27T02:30:40;1;1;
82622;PMS5003;72291;55.002;-1.592;2024-01-27T02:33:06;1;0;
82622;PMS5003;72291;55.002;-1.592;2024-01-27T02:35:31;2;1;
82622;PMS5003;72291;55.002;-1.592;2024-01-27T02:37:57;0;0;
82622;PMS5003;72291;55.002;-1.592;2024-01-27T02:40:21;2;0;
82622;PMS5003;72291;55.002;-1.592;2024-01-27T02:42:47;3;2;
82622;PMS5003;72291;55.002;-1.592;2024-01-27T02:45:11;0;0;
82622;PMS5003;72291;55.002;-1.592;2024-01-27T02:47:37;0;0;
82622;PMS5003;72291;55.002;-1.592;2024-01-27T02:50:03;1;1;
82622;PMS5003;72291;55.002;-1.592;2024-01-27T02:52:27;0;0;
82622;PMS5003;72291;55.002;-1.592;2024-01-27T02:54:52;1;0;
82622;PMS5003;72291;55.002;-1.592;2024-01-27T02:57:17;3;1;
82622;PMS5003;72291;55.002;-1.592;2024-01-27T02:59:44;0;0;
82622;PMS5003;72291;55.002;-1.592;2024-01-27T03:02:07;0;0;
82622;PMS5003;72291;55.002;-1.592;2024-01-27T03:04:33;1;1;
82622;PMS5003;72291;55.002;-1.592;2024-01-27T03:06:58;0;0;
82622;PMS5003;72291;55.002;-1.592;2024-01-27T03:09:23;0;0;
82622;PMS5003;72291;55.002;-1.592;2024-01-27T03:11:48;1;1;
82622;PMS5003;72291;55.002;-1.592;2024-01-27T03:14:13;2;1;
82622;PMS5003;72291;55.002;-1.592;2024-01-27T03:16:38;3;2;
82622;PMS5003;72291;55.002;-1.592;2024-01-27T03:19:04;1;0;
82622;PMS5003;72291;55.002;-1.592;2024-01-27T03:21:29;0;0;
82622;PMS5003;72291;55.002;-1.592;2024-01-27T03:23:54;1;0;
82622;PMS5003;72291;55.002;-1.592;2024-01-27T03:26:20;2;1;
82622;PMS5003;72291;55.002;-1.592;2024-01-27T03:28:45;2;1;
82622;PMS5003;72291;55.002;-1.592;2024-01-27T03:31:10;1;1;
82622;PMS5003;72291;55.002;-1.592;2024-01-27T03:33:35;1;0;
82622;PMS5003;72291;55.002;-1.592;2024-01-27T03:36:00;2;1;
82622;PMS5003;72291;55.002;-1.592;2024-01-27T03:38:25;0;0;
82622;PMS5003;72291;55.002;-1.592;2024-01-27T03:40:50;3;0;
82622;PMS5003;72291;55.002;-1.592;2024-01-27T03:43:16;1;1;
82622;PMS5003;72291;55.002;-1.592;2024-01-27T03:45:41;1;0;
82622;PMS5003;72291;55.002;-1.592;2024-01-27T03:48:06;2;1;
82622;PMS5003;72291;55.002;-1.592;2024-01-27T03:50:31;2;0;
82622;PMS5003;72291;55.002;-1.592;2024-01-27T03:52:57;3;2;
82622;PMS5003;72291;55.002;-1.592;2024-01-27T03:55:22;4;1;
82622;PMS5003;72291;55.002;-1.592;2024-01-27T03:57:52;1;0;
82622;PMS5003;72291;55.002;-1.592;2024-01-27T04:00:13;1;1;
82622;PMS5003;72291;55.002;-1.592;2024-01-27T04:02:38;0;0;
82622;PMS5003;72291;55.002;-1.592;2024-01-27T04:05:03;1;1;
82622;PMS5003;72291;55.002;-1.592;2024-01-27T04:07:28;2;2;
82622;PMS5003;72291;55.002;-1.592;2024-01-27T04:09:53;2;1;
82622;PMS5003;72291;55.002;-1.592;2024-01-27T04:12:19;2;2;
82622;PMS5003;72291;55.002;-1.592;2024-01-27T04:14:45;1;0;
82622;PMS5003;72291;55.002;-1.592;2024-01-27T04:17:09;2;0;
82622;PMS5003;72291;55.002;-1.592;2024-01-27T04:19:35;0;0;
82622;PMS5003;72291;55.002;-1.592;2024-01-27T04:22:00;0;0;
82622;PMS5003;72291;55.002;-1.592;2024-01-27T04:24:25;0;0;
82622;PMS5003;72291;55.002;-1.592;2024-01-27T04:26:51;0;0;
82622;PMS5003;72291;55.002;-1.592;2024-01-27T04:29:15;3;3;
82622;PMS5003;72291;55.002;-1.592;2024-01-27T04:31:40;3;2;
82622;PMS5003;72291;55.002;-1.592;2024-01-27T04:34:05;4;2;
82622;PMS5003;72291;55.002;-1.592;2024-01-27T04:36:30;2;0;
82622;PMS5003;72291;55.002;-1.592;2024-01-27T04:38:56;0;0;
82622;PMS5003;72291;55.002;-1.592;2024-01-27T04:41:21;2;0;
82622;PMS5003;72291;55.002;-1.592;2024-01-27T04:43:46;2;1;
82622;PMS5003;72291;55.002;-1.592;2024-01-27T04:46:11;2;1;
82622;PMS5003;72291;55.002;-1.592;2024-01-27T04:48:36;0;0;
82622;PMS5003;72291;55.002;-1.592;2024-01-27T04:51:01;2;0;
82622;PMS5003;72291;55.002;-1.592;2024-01-27T04:53:26;3;2;
82622;PMS5003;72291;55.002;-1.592;2024-01-27T04:55:52;1;0;
82622;PMS5003;72291;55.002;-1.592;2024-01-27T04:58:17;1;1;
82622;PMS5003;72291;55.002;-1.592;2024-01-27T05:00:42;3;1;
82622;PMS5003;72291;55.002;-1.592;2024-01-27T05:03:07;4;2;
82622;PMS5003;72291;55.002;-1.592;2024-01-27T05:05:32;0;0;
82622;PMS5003;72291;55.002;-1.592;2024-01-27T05:07:57;0;0;
82622;PMS5003;72291;55.002;-1.592;2024-01-27T05:10:23;3;0;
82622;PMS5003;72291;55.002;-1.592;2024-01-27T05:12:48;1;1;
82622;PMS5003;72291;55.002;-1.592;2024-01-27T05:15:13;2;0;
82622;PMS5003;72291;55.002;-1.592;2024-01-27T05:17:38;3;1;
82622;PMS5003;72291;55.002;-1.592;2024-01-27T05:20:03;5;1;
82622;PMS5003;72291;55.002;-1.592;2024-01-27T05:22:28;0;0;
82622;PMS5003;72291;55.002;-1.592;2024-01-27T05:24:53;3;0;
82622;PMS5003;72291;55.002;-1.592;2024-01-27T05:27:20;2;0;
82622;PMS5003;72291;55.002;-1.592;2024-01-27T05:29:44;3;0;
82622;PMS5003;72291;55.002;-1.592;2024-01-27T05:32:09;1;0;
82622;PMS5003;72291;55.002;-1.592;2024-01-27T05:34:34;0;0;
82622;PMS5003;72291;55.002;-1.592;2024-01-27T05:37:00;0;0;
82622;PMS5003;72291;55.002;-1.592;2024-01-27T05:39:25;2;1;
82622;PMS5003;72291;55.002;-1.592;2024-01-27T05:41:50;0;0;
82622;PMS5003;72291;55.002;-1.592;2024-01-27T05:44:15;2;2;
82622;PMS5003;72291;55.002;-1.592;2024-01-27T05:46:40;2;0;
82622;PMS5003;72291;55.002;-1.592;2024-01-27T05:49:06;5;3;
82622;PMS5003;72291;55.002;-1.592;2024-01-27T05:51:31;0;0;
82622;PMS5003;72291;55.002;-1.592;2024-01-27T05:53:56;2;0;
82622;PMS5003;72291;55.002;-1.592;2024-01-27T05:56:22;4;0;
82622;PMS5003;72291;55.002;-1.592;2024-01-27T05:58:47;0;0;
82622;PMS5003;72291;55.002;-1.592;2024-01-27T06:01:12;0;0;
82622;PMS5003;72291;55.002;-1.592;2024-01-27T06:03:40;1;0;
82622;PMS5003;72291;55.002;-1.592;2024-01-27T06:06:02;2;1;
82622;PMS5003;72291;55.002;-1.592;2024-01-27T06:08:28;1;0;
82622;PMS5003;72291;55.002;-1.592;2024-01-27T06:10:53;0;0;
82622;PMS5003;72291;55.002;-1.592;2024-01-27T06:13:18;0;0;
82622;PMS5003;72291;55.002;-1.592;2024-01-27T06:15:43;2;1;
82622;PMS5003;72291;55.002;-1.592;2024-01-27T06:18:08;0;0;
82622;PMS5003;72291;55.002;-1.592;2024-01-27T06:20:33;4;0;
82622;PMS5003;72291;55.002;-1.592;2024-01-27T06:22:58;1;0;
82622;PMS5003;72291;55.002;-1.592;2024-01-27T06:25:23;2;1;
82622;PMS5003;72291;55.002;-1.592;2024-01-27T06:27:49;1;0;
82622;PMS5003;72291;55.002;-1.592;2024-01-27T06:30:14;1;0;
82622;PMS5003;72291;55.002;-1.592;2024-01-27T06:32:40;1;0;
82622;PMS5003;72291;55.002;-1.592;2024-01-27T06:35:05;2;0;
82622;PMS5003;72291;55.002;-1.592;2024-01-27T06:37:30;1;0;
82622;PMS5003;72291;55.002;-1.592;2024-01-27T06:40:00;2;1;
82622;PMS5003;72291;55.002;-1.592;2024-01-27T06:42:26;0;0;
82622;PMS5003;72291;55.002;-1.592;2024-01-27T06:44:45;1;0;
82622;PMS5003;72291;55.002;-1.592;2024-01-27T06:47:15;0;0;
82622;PMS5003;72291;55.002;-1.592;2024-01-27T06:49:38;1;0;
82622;PMS5003;72291;55.002;-1.592;2024-01-27T06:52:02;2;0;
82622;PMS5003;72291;55.002;-1.592;2024-01-27T06:54:26;0;0;
82622;PMS5003;72291;55.002;-1.592;2024-01-27T06:56:58;2;0;
82622;PMS5003;72291;55.002;-1.592;2024-01-27T06:59:26;0;0;
82622;PMS5003;72291;55.002;-1.592;2024-01-27T07:04:08;0;0;
82622;PMS5003;72291;55.002;-1.592;2024-01-27T07:23:30;2;1;
82622;PMS5003;72291;55.002;-1.592;2024-01-27T07:33:10;0;0;
82622;PMS5003;72291;55.002;-1.592;2024-01-27T07:35:37;0;0;
82622;PMS5003;72291;55.002;-1.592;2024-01-27T07:38:01;1;1;
82622;PMS5003;72291;55.002;-1.592;2024-01-27T07:40:26;0;0;
82622;PMS5003;72291;55.002;-1.592;2024-01-27T07:42:51;2;0;
82622;PMS5003;72291;55.002;-1.592;2024-01-27T07:45:17;3;1;
82622;PMS5003;72291;55.002;-1.592;2024-01-27T07:47:43;0;0;
82622;PMS5003;72291;55.002;-1.592;2024-01-27T07:50:07;2;1;
82622;PMS5003;72291;55.002;-1.592;2024-01-27T07:52:32;3;1;
82622;PMS5003;72291;55.002;-1.592;2024-01-27T07:54:57;2;1;
82622;PMS5003;72291;55.002;-1.592;2024-01-27T07:57:22;3;1;
82622;PMS5003;72291;55.002;-1.592;2024-01-27T07:59:48;2;1;
82622;PMS5003;72291;55.002;-1.592;2024-01-27T08:02:13;1;0;
82622;PMS5003;72291;55.002;-1.592;2024-01-27T08:04:38;3;1;
82622;PMS5003;72291;55.002;-1.592;2024-01-27T08:07:03;2;0;
82622;PMS5003;72291;55.002;-1.592;2024-01-27T08:09:28;4;1;
82622;PMS5003;72291;55.002;-1.592;2024-01-27T08:11:54;1;0;
82622;PMS5003;72291;55.002;-1.592;2024-01-27T08:14:18;2;1;
82622;PMS5003;72291;55.002;-1.592;2024-01-27T08:16:44;7;2;
82622;PMS5003;72291;55.002;-1.592;2024-01-27T08:19:09;2;0;
82622;PMS5003;72291;55.002;-1.592;2024-01-27T08:21:35;1;1;
82622;PMS5003;72291;55.002;-1.592;2024-01-27T08:24:01;0;0;
82622;PMS5003;72291;55.002;-1.592;2024-01-27T08:26:25;3;1;
82622;PMS5003;72291;55.002;-1.592;2024-01-27T08:28:50;1;0;
82622;PMS5003;72291;55.002;-1.592;2024-01-27T08:31:15;0;0;
82622;PMS5003;72291;55.002;-1.592;2024-01-27T08:33:40;2;1;
82622;PMS5003;72291;55.002;-1.592;2024-01-27T08:36:07;2;0;
82622;PMS5003;72291;55.002;-1.592;2024-01-27T08:38:31;1;1;
82622;PMS5003;72291;55.002;-1.592;2024-01-27T08:40:56;1;1;
82622;PMS5003;72291;55.002;-1.592;2024-01-27T08:43:21;2;1;
82622;PMS5003;72291;55.002;-1.592;2024-01-27T08:45:48;0;0;
82622;PMS5003;72291;55.002;-1.592;2024-01-27T08:48:13;0;0;
82622;PMS5003;72291;55.002;-1.592;2024-01-27T08:50:37;1;0;
82622;PMS5003;72291;55.002;-1.592;2024-01-27T08:53:03;3;0;
82622;PMS5003;72291;55.002;-1.592;2024-01-27T08:55:27;2;0;
82622;PMS5003;72291;55.002;-1.592;2024-01-27T08:57:52;1;0;
82622;PMS5003;72291;55.002;-1.592;2024-01-27T09:00:19;1;1;
82622;PMS5003;72291;55.002;-1.592;2024-01-27T09:02:43;0;0;
82622;PMS5003;72291;55.002;-1.592;2024-01-27T09:05:08;5;2;
82622;PMS5003;72291;55.002;-1.592;2024-01-27T09:07:33;1;0;
82622;PMS5003;72291;55.002;-1.592;2024-01-27T09:12:25;1;0;
82622;PMS5003;72291;55.002;-1.592;2024-01-27T09:14:48;1;0;
82622;PMS5003;72291;55.002;-1.592;2024-01-27T09:17:14;0;0;
82622;PMS5003;72291;55.002;-1.592;2024-01-27T09:19:39;1;0;
82622;PMS5003;72291;55.002;-1.592;2024-01-27T09:22:04;1;1;
82622;PMS5003;72291;55.002;-1.592;2024-01-27T09:24:32;0;0;
82622;PMS5003;72291;55.002;-1.592;2024-01-27T09:26:55;2;0;
82622;PMS5003;72291;55.002;-1.592;2024-01-27T09:29:20;3;1;
82622;PMS5003;72291;55.002;-1.592;2024-01-27T09:31:45;1;0;
82622;PMS5003;72291;55.002;-1.592;2024-01-27T09:34:10;4;1;
82622;PMS5003;72291;55.002;-1.592;2024-01-27T09:36:37;3;0;
82622;PMS5003;72291;55.002;-1.592;2024-01-27T09:39:01;0;0;
82622;PMS5003;72291;55.002;-1.592;2024-01-27T09:41:27;1;1;
82622;PMS5003;72291;55.002;-1.592;2024-01-27T09:43:51;3;0;
82622;PMS5003;72291;55.002;-1.592;2024-01-27T09:46:17;5;1;
82622;PMS5003;72291;55.002;-1.592;2024-01-27T09:48:42;3;1;
82622;PMS5003;72291;55.002;-1.592;2024-01-27T09:51:07;2;0;
82622;PMS5003;72291;55.002;-1.592;2024-01-27T09:53:33;1;1;
82622;PMS5003;72291;55.002;-1.592;2024-01-27T09:55:58;0;0;
82622;PMS5003;72291;55.002;-1.592;2024-01-27T09:58:23;3;1;
82622;PMS5003;72291;55.002;-1.592;2024-01-27T10:00:49;3;1;
82622;PMS5003;72291;55.002;-1.592;2024-01-27T10:03:14;3;2;
82622;PMS5003;72291;55.002;-1.592;2024-01-27T10:05:40;1;1;
82622;PMS5003;72291;55.002;-1.592;2024-01-27T10:08:06;1;0;
82622;PMS5003;72291;55.002;-1.592;2024-01-27T10:10:30;0;0;
82622;PMS5003;72291;55.002;-1.592;2024-01-27T10:12:57;0;0;
82622;PMS5003;72291;55.002;-1.592;2024-01-27T10:15:20;3;1;
82622;PMS5003;72291;55.002;-1.592;2024-01-27T10:17:46;1;0;
82622;PMS5003;72291;55.002;-1.592;2024-01-27T10:20:11;5;0;
82622;PMS5003;72291;55.002;-1.592;2024-01-27T10:22:37;0;0;
82622;PMS5003;72291;55.002;-1.592;2024-01-27T10:25:02;1;0;
82622;PMS5003;72291;55.002;-1.592;2024-01-27T10:27:26;2;1;
82622;PMS5003;72291;55.002;-1.592;2024-01-27T10:29:52;2;0;
82622;PMS5003;72291;55.002;-1.592;2024-01-27T10:32:17;0;0;
82622;PMS5003;72291;55.002;-1.592;2024-01-27T10:34:42;2;0;
82622;PMS5003;72291;55.002;-1.592;2024-01-27T10:37:11;3;1;
82622;PMS5003;72291;55.002;-1.592;2024-01-27T10:39:32;1;0;
82622;PMS5003;72291;55.002;-1.592;2024-01-27T10:41:58;3;1;
82622;PMS5003;72291;55.002;-1.592;2024-01-27T10:44:23;0;0;
82622;PMS5003;72291;55.002;-1.592;2024-01-27T10:46:49;1;1;
82622;PMS5003;72291;55.002;-1.592;2024-01-27T10:49:15;2;0;
82622;PMS5003;72291;55.002;-1.592;2024-01-27T10:51:40;1;1;
82622;PMS5003;72291;55.002;-1.592;2024-01-27T10:54:04;3;2;
82622;PMS5003;72291;55.002;-1.592;2024-01-27T10:56:29;0;0;
82622;PMS5003;72291;55.002;-1.592;2024-01-27T10:58:54;3;2;
82622;PMS5003;72291;55.002;-1.592;2024-01-27T11:01:20;1;0;
82622;PMS5003;72291;55.002;-1.592;2024-01-27T11:03:44;1;0;
82622;PMS5003;72291;55.002;-1.592;2024-01-27T11:06:10;0;0;
82622;PMS5003;72291;55.002;-1.592;2024-01-27T11:08:35;2;1;
82622;PMS5003;72291;55.002;-1.592;2024-01-27T11:11:00;1;1;
82622;PMS5003;72291;55.002;-1.592;2024-01-27T11:13:26;5;1;
82622;PMS5003;72291;55.002;-1.592;2024-01-27T11:15:51;2;1;
82622;PMS5003;72291;55.002;-1.592;2024-01-27T11:18:20;3;1;
82622;PMS5003;72291;55.002;-1.592;2024-01-27T11:20:44;1;0;
82622;PMS5003;72291;55.002;-1.592;2024-01-27T11:23:09;2;1;
82622;PMS5003;72291;55.002;-1.592;2024-01-27T11:25:32;2;1;
82622;PMS5003;72291;55.002;-1.592;2024-01-27T11:27:56;1;0;
82622;PMS5003;72291;55.002;-1.592;2024-01-27T11:30:26;0;0;
82622;PMS5003;72291;55.002;-1.592;2024-01-27T11:32:48;0;0;
82622;PMS5003;72291;55.002;-1.592;2024-01-27T11:35:11;1;0;
82622;PMS5003;72291;55.002;-1.592;2024-01-27T11:37:37;0;0;
82622;PMS5003;72291;55.002;-1.592;2024-01-27T11:40:03;1;1;
82622;PMS5003;72291;55.002;-1.592;2024-01-27T11:42:27;4;3;
82622;PMS5003;72291;55.002;-1.592;2024-01-27T11:44:53;0;0;
82622;PMS5003;72291;55.002;-1.592;2024-01-27T11:47:18;1;1;
82622;PMS5003;72291;55.002;-1.592;2024-01-27T11:49:43;1;1;
82622;PMS5003;72291;55.002;-1.592;2024-01-27T11:52:08;1;1;
82622;PMS5003;72291;55.002;-1.592;2024-01-27T11:54:33;0;0;
82622;PMS5003;72291;55.002;-1.592;2024-01-27T11:57:02;3;0;
82622;PMS5003;72291;55.002;-1.592;2024-01-27T11:59:23;0;0;
82622;PMS5003;72291;55.002;-1.592;2024-01-27T12:01:49;2;1;
82622;PMS5003;72291;55.002;-1.592;2024-01-27T12:04:14;1;1;
82622;PMS5003;72291;55.002;-1.592;2024-01-27T12:06:39;3;1;
82622;PMS5003;72291;55.002;-1.592;2024-01-27T12:09:04;0;0;
82622;PMS5003;72291;55.002;-1.592;2024-01-27T12:11:29;0;0;
82622;PMS5003;72291;55.002;-1.592;2024-01-27T12:13:55;0;0;
82622;PMS5003;72291;55.002;-1.592;2024-01-27T12:16:20;1;0;
82622;PMS5003;72291;55.002;-1.592;2024-01-27T12:18:44;0;0;
82622;PMS5003;72291;55.002;-1.592;2024-01-27T12:21:09;0;0;
82622;PMS5003;72291;55.002;-1.592;2024-01-27T12:23:35;3;2;
82622;PMS5003;72291;55.002;-1.592;2024-01-27T12:26:01;2;1;
82622;PMS5003;72291;55.002;-1.592;2024-01-27T12:28:25;1;1;
82622;PMS5003;72291;55.002;-1.592;2024-01-27T12:30:50;0;0;
82622;PMS5003;72291;55.002;-1.592;2024-01-27T12:33:16;0;0;
82622;PMS5003;72291;55.002;-1.592;2024-01-27T12:35:40;1;0;
82622;PMS5003;72291;55.002;-1.592;2024-01-27T12:38:06;2;1;
82622;PMS5003;72291;55.002;-1.592;2024-01-27T12:40:31;3;2;
82622;PMS5003;72291;55.002;-1.592;2024-01-27T12:43:01;1;0;
82622;PMS5003;72291;55.002;-1.592;2024-01-27T12:45:21;3;2;
82622;PMS5003;72291;55.002;-1.592;2024-01-27T12:47:49;1;1;
82622;PMS5003;72291;55.002;-1.592;2024-01-27T12:50:13;1;0;
82622;PMS5003;72291;55.002;-1.592;2024-01-27T12:52:40;0;0;
82622;PMS5003;72291;55.002;-1.592;2024-01-27T13:04:51;2;0;
82622;PMS5003;72291;55.002;-1.592;2024-01-27T13:14:24;4;1;
82622;PMS5003;72291;55.002;-1.592;2024-01-27T13:16:51;1;1;
82622;PMS5003;72291;55.002;-1.592;2024-01-27T13:19:14;2;2;
82622;PMS5003;72291;55.002;-1.592;2024-01-27T13:21:40;4;2;
82622;PMS5003;72291;55.002;-1.592;2024-01-27T13:24:05;1;1;
82622;PMS5003;72291;55.002;-1.592;2024-01-27T13:26:30;0;0;
82622;PMS5003;72291;55.002;-1.592;2024-01-27T13:28:55;2;1;
82622;PMS5003;72291;55.002;-1.592;2024-01-27T13:31:20;2;1;
82622;PMS5003;72291;55.002;-1.592;2024-01-27T13:33:45;1;0;
82622;PMS5003;72291;55.002;-1.592;2024-01-27T13:36:10;1;1;
82622;PMS5003;72291;55.002;-1.592;2024-01-27T13:38:42;5;3;
82622;PMS5003;72291;55.002;-1.592;2024-01-27T13:41:03;5;2;
82622;PMS5003;72291;55.002;-1.592;2024-01-27T13:43:26;2;0;
82622;PMS5003;72291;55.002;-1.592;2024-01-27T13:45:52;0;0;
82622;PMS5003;72291;55.002;-1.592;2024-01-27T13:48:17;1;0;
82622;PMS5003;72291;55.002;-1.592;2024-01-27T13:50:42;1;0;
82622;PMS5003;72291;55.002;-1.592;2024-01-27T13:53:10;1;1;
82622;PMS5003;72291;55.002;-1.592;2024-01-27T13:55:32;0;0;
82622;PMS5003;72291;55.002;-1.592;2024-01-27T13:57:57;5;1;
82622;PMS5003;72291;55.002;-1.592;2024-01-27T14:00:22;4;2;
82622;PMS5003;72291;55.002;-1.592;2024-01-27T14:02:48;2;1;
82622;PMS5003;72291;55.002;-1.592;2024-01-27T14:05:14;1;1;
82622;PMS5003;72291;55.002;-1.592;2024-01-27T14:07:38;0;0;
82622;PMS5003;72291;55.002;-1.592;2024-01-27T14:10:03;0;0;
82622;PMS5003;72291;55.002;-1.592;2024-01-27T14:12:28;3;1;
82622;PMS5003;72291;55.002;-1.592;2024-01-27T14:14:53;2;1;
82622;PMS5003;72291;55.002;-1.592;2024-01-27T14:17:18;2;1;
82622;PMS5003;72291;55.002;-1.592;2024-01-27T14:19:43;2;1;
82622;PMS5003;72291;55.002;-1.592;2024-01-27T14:22:08;3;1;
82622;PMS5003;72291;55.002;-1.592;2024-01-27T14:24:34;1;1;
82622;PMS5003;72291;55.002;-1.592;2024-01-27T14:26:59;0;0;
82622;PMS5003;72291;55.002;-1.592;2024-01-27T14:29:25;6;5;
82622;PMS5003;72291;55.002;-1.592;2024-01-27T14:31:50;3;0;
82622;PMS5003;72291;55.002;-1.592;2024-01-27T14:34:15;2;2;
82622;PMS5003;72291;55.002;-1.592;2024-01-27T14:36:40;4;3;
82622;PMS5003;72291;55.002;-1.592;2024-01-27T14:39:05;5;2;
82622;PMS5003;72291;55.002;-1.592;2024-01-27T14:41:31;3;1;
82622;PMS5003;72291;55.002;-1.592;2024-01-27T14:43:55;4;3;
82622;PMS5003;72291;55.002;-1.592;2024-01-27T14:46:21;4;2;
82622;PMS5003;72291;55.002;-1.592;2024-01-27T14:48:46;4;2;
82622;PMS5003;72291;55.002;-1.592;2024-01-27T14:51:11;8;4;
82622;PMS5003;72291;55.002;-1.592;2024-01-27T14:53:36;2;1;
82622;PMS5003;72291;55.002;-1.592;2024-01-27T14:56:01;2;2;
82622;PMS5003;72291;55.002;-1.592;2024-01-27T14:58:26;3;2;
82622;PMS5003;72291;55.002;-1.592;2024-01-27T15:00:52;4;3;
82622;PMS5003;72291;55.002;-1.592;2024-01-27T15:03:17;4;3;
82622;PMS5003;72291;55.002;-1.592;2024-01-27T15:05:44;4;3;
82622;PMS5003;72291;55.002;-1.592;2024-01-27T15:08:08;6;6;
82622;PMS5003;72291;55.002;-1.592;2024-01-27T15:10:33;5;4;
82622;PMS5003;72291;55.002;-1.592;2024-01-27T15:12:58;6;5;
82622;PMS5003;72291;55.002;-1.592;2024-01-27T15:15:23;7;5;
82622;PMS5003;72291;55.002;-1.592;2024-01-27T15:17:50;6;4;
82622;PMS5003;72291;55.002;-1.592;2024-01-27T15:20:14;4;3;
82622;PMS5003;72291;55.002;-1.592;2024-01-27T15:22:39;5;4;
82622;PMS5003;72291;55.002;-1.592;2024-01-27T15:25:05;7;5;
82622;PMS5003;72291;55.002;-1.592;2024-01-27T15:27:30;6;5;
82622;PMS5003;72291;55.002;-1.592;2024-01-27T15:29:56;5;5;
82622;PMS5003;72291;55.002;-1.592;2024-01-27T15:32:20;7;5;
82622;PMS5003;72291;55.002;-1.592;2024-01-27T15:34:45;4;4;
82622;PMS5003;72291;55.002;-1.592;2024-01-27T15:37:10;3;3;
82622;PMS5003;72291;55.002;-1.592;2024-01-27T15:39:36;4;1;
82622;PMS5003;72291;55.002;-1.592;2024-01-27T15:42:03;4;2;
82622;PMS5003;72291;55.002;-1.592;2024-01-27T15:44:26;4;3;
82622;PMS5003;72291;55.002;-1.592;2024-01-27T15:46:52;3;2;
82622;PMS5003;72291;55.002;-1.592;2024-01-27T15:49:17;3;3;
82622;PMS5003;72291;55.002;-1.592;2024-01-27T15:51:42;1;1;
82622;PMS5003;72291;55.002;-1.592;2024-01-27T15:54:09;3;2;
82622;PMS5003;72291;55.002;-1.592;2024-01-27T15:56:33;2;1;
82622;PMS5003;72291;55.002;-1.592;2024-01-27T15:58:58;4;2;
82622;PMS5003;72291;55.002;-1.592;2024-01-27T16:01:23;9;5;
82622;PMS5003;72291;55.002;-1.592;2024-01-27T16:03:48;3;2;
82622;PMS5003;72291;55.002;-1.592;2024-01-27T16:06:15;4;1;
82622;PMS5003;72291;55.002;-1.592;2024-01-27T16:08:39;3;2;
82622;PMS5003;72291;55.002;-1.592;2024-01-27T16:11:04;6;3;
82622;PMS5003;72291;55.002;-1.592;2024-01-27T16:13:29;6;5;
82622;PMS5003;72291;55.002;-1.592;2024-01-27T16:15:55;3;3;
82622;PMS5003;72291;55.002;-1.592;2024-01-27T16:18:21;7;4;
82622;PMS5003;72291;55.002;-1.592;2024-01-27T16:20:45;6;4;
82622;PMS5003;72291;55.002;-1.592;2024-01-27T16:23:10;3;3;
82622;PMS5003;72291;55.002;-1.592;2024-01-27T16:25:35;6;4;
82622;PMS5003;72291;55.002;-1.592;2024-01-27T16:28:00;7;5;
82622;PMS5003;72291;55.002;-1.592;2024-01-27T16:30:28;9;7;
82622;PMS5003;72291;55.002;-1.592;2024-01-27T16:32:51;8;4;
82622;PMS5003;72291;55.002;-1.592;2024-01-27T16:35:17;6;5;
82622;PMS5003;72291;55.002;-1.592;2024-01-27T16:37:42;5;4;
82622;PMS5003;72291;55.002;-1.592;2024-01-27T16:40:07;6;4;
82622;PMS5003;72291;55.002;-1.592;2024-01-27T16:42:34;10;6;
82622;PMS5003;72291;55.002;-1.592;2024-01-27T16:44:58;4;3;
82622;PMS5003;72291;55.002;-1.592;2024-01-27T16:47:23;7;6;
82622;PMS5003;72291;55.002;-1.592;2024-01-27T16:49:48;10;8;
82622;PMS5003;72291;55.002;-1.592;2024-01-27T16:52:14;4;4;
82622;PMS5003;72291;55.002;-1.592;2024-01-27T16:54:40;7;6;
82622;PMS5003;72291;55.002;-1.592;2024-01-27T16:57:05;9;7;
82622;PMS5003;72291;55.002;-1.592;2024-01-27T16:59:30;5;5;
82622;PMS5003;72291;55.002;-1.592;2024-01-27T17:01:56;8;5;
82622;PMS5003;72291;55.002;-1.592;2024-01-27T17:04:21;4;4;
82622;PMS5003;72291;55.002;-1.592;2024-01-27T17:06:51;4;4;
82622;PMS5003;72291;55.002;-1.592;2024-01-27T17:09:14;4;4;
82622;PMS5003;72291;55.002;-1.592;2024-01-27T17:11:37;7;6;
82622;PMS5003;72291;55.002;-1.592;2024-01-27T17:14:02;10;5;
82622;PMS5003;72291;55.002;-1.592;2024-01-27T17:16:28;8;6;
82622;PMS5003;72291;55.002;-1.592;2024-01-27T17:18:54;8;6;
82622;PMS5003;72291;55.002;-1.592;2024-01-27T17:21:18;7;6;
82622;PMS5003;72291;55.002;-1.592;2024-01-27T17:23:45;6;6;
82622;PMS5003;72291;55.002;-1.592;2024-01-27T17:26:08;5;4;
82622;PMS5003;72291;55.002;-1.592;2024-01-27T17:28:33;10;5;
82622;PMS5003;72291;55.002;-1.592;2024-01-27T17:31:00;8;6;
82622;PMS5003;72291;55.002;-1.592;2024-01-27T17:33:24;6;5;
82622;PMS5003;72291;55.002;-1.592;2024-01-27T17:35:49;8;7;
82622;PMS5003;72291;55.002;-1.592;2024-01-27T17:38:15;10;8;